createdAt,value
2023-01-26T00:02:14.757Z,101713.09
2023-01-26T00:07:17.975Z,101704.50
2023-01-26T00:12:22.579Z,101706.38
2023-01-26T00:17:28.790Z,101705.38
2023-01-26T00:22:32.232Z,101708.00
2023-01-26T00:27:36.935Z,101694.16
2023-01-26T00:32:40.186Z,101680.28
2023-01-26T00:37:43.786Z,101654.13
2023-01-26T00:42:48.553Z,101661.88
2023-01-26T00:47:51.821Z,101657.47
2023-01-26T00:52:55.139Z,101661.88
2023-01-26T00:57:59.856Z,101666.19
2023-01-26T01:03:03.451Z,101670.63
2023-01-26T01:08:07.056Z,101672.44
2023-01-26T01:13:11.732Z,101662.94
2023-01-26T01:18:15.035Z,101660.34
2023-01-26T01:23:18.358Z,101669.88
2023-01-26T01:28:22.975Z,101663.69
2023-01-26T01:33:26.543Z,101671.47
2023-01-26T01:38:29.859Z,101680.22
2023-01-26T01:43:35.054Z,101676.72
2023-01-26T01:48:45.839Z,101665.38
2023-01-26T01:53:52.842Z,101661.13
2023-01-26T01:59:01.136Z,101661.03
2023-01-26T02:04:07.291Z,101648.84
2023-01-26T02:09:32.502Z,101646.22
2023-01-26T02:14:37.097Z,101664.50
2023-01-26T02:19:50.536Z,101667.09
2023-01-26T02:24:58.227Z,101654.03
2023-01-26T02:30:04.275Z,101643.66
2023-01-26T02:35:07.952Z,101638.44
2023-01-26T02:40:18.723Z,101640.03
2023-01-26T02:45:24.354Z,101634.66
2023-01-26T02:50:27.619Z,101640.66
2023-01-26T02:55:30.830Z,101625.09
2023-01-26T03:00:37.646Z,101611.06
2023-01-26T03:05:41.010Z,101599.75
2023-01-26T03:10:44.607Z,101582.25
2023-01-26T03:15:52.958Z,101581.25
2023-01-26T03:21:13.855Z,101572.56
2023-01-26T03:26:34.375Z,101575.16
2023-01-26T03:31:39.123Z,101577.94
2023-01-26T03:36:42.386Z,101568.44
2023-01-26T03:42:02.864Z,101573.66
2023-01-26T03:47:24.562Z,101581.47
2023-01-26T03:52:45.205Z,101571.97
2023-01-26T03:57:49.692Z,101560.75
2023-01-26T04:03:11.688Z,101558.22
2023-01-26T04:08:30.631Z,101539.09
2023-01-26T04:13:51.425Z,101544.38
2023-01-26T04:19:14.084Z,101537.28
2023-01-26T04:24:17.577Z,101526.91
2023-01-26T04:29:21.420Z,101525.97
2023-01-26T04:34:27.061Z,101522.50
2023-01-26T04:39:30.318Z,101507.59
2023-01-26T04:44:33.552Z,101496.38
2023-01-26T04:49:38.185Z,101498.13
2023-01-26T04:54:41.776Z,101509.25
2023-01-26T04:59:44.960Z,101511.81
2023-01-26T05:04:49.566Z,101497.16
2023-01-26T05:09:52.798Z,101505.78
2023-01-26T05:14:56.015Z,101506.69
2023-01-26T05:20:00.680Z,101488.44
2023-01-26T05:25:03.898Z,101492.69
2023-01-26T05:30:08.243Z,101494.22
2023-01-26T05:35:13.073Z,101488.97
2023-01-26T05:40:16.449Z,101494.13
2023-01-26T05:45:19.921Z,101483.75
2023-01-26T05:50:24.459Z,101491.53
2023-01-26T05:55:27.735Z,101488.84
2023-01-26T06:00:31.003Z,101486.19
2023-01-26T06:05:35.522Z,101480.88
2023-01-26T06:10:38.664Z,101473.03
2023-01-26T06:15:41.801Z,101462.59
2023-01-26T06:20:46.466Z,101465.97
2023-01-26T06:25:49.614Z,101433.06
2023-01-26T06:30:53.616Z,101438.25
2023-01-26T06:35:58.213Z,101435.59
2023-01-26T06:41:03.254Z,101438.16
2023-01-26T06:46:07.635Z,101443.31
2023-01-26T06:51:45.299Z,101416.47
2023-01-26T06:56:48.488Z,101434.75
2023-01-26T07:01:51.660Z,101433.09
2023-01-26T07:06:56.234Z,101429.63
2023-01-26T07:11:59.336Z,101428.88
2023-01-26T07:17:02.889Z,101451.38
2023-01-26T07:22:07.455Z,101440.19
2023-01-26T07:27:10.593Z,101448.03
2023-01-26T07:32:13.914Z,101442.03
2023-01-26T07:37:18.468Z,101438.63
2023-01-26T07:42:21.829Z,101431.63
2023-01-26T07:47:25.125Z,101427.22
2023-01-26T07:52:29.797Z,101450.59
2023-01-26T07:57:34.155Z,101459.31
2023-01-26T08:02:37.415Z,101455.00
2023-01-26T08:07:42.014Z,101436.03
2023-01-26T08:12:45.221Z,101440.50
2023-01-26T08:17:48.443Z,101425.03
2023-01-26T08:22:53.119Z,101437.13
2023-01-26T08:27:56.778Z,101426.72
2023-01-26T08:33:00.091Z,101419.03
2023-01-26T08:38:05.937Z,101406.97
2023-01-26T08:43:09.151Z,101415.75
2023-01-26T08:48:12.462Z,101437.47
2023-01-26T08:53:17.462Z,101430.53
2023-01-26T08:58:21.803Z,101427.13
2023-01-26T09:03:25.199Z,101443.72
2023-01-26T09:08:29.821Z,101439.44
2023-01-26T09:13:33.053Z,101449.03
2023-01-26T09:18:36.766Z,101449.13
2023-01-26T09:23:41.363Z,101418.78
2023-01-26T09:28:44.571Z,101415.28
2023-01-26T09:33:49.237Z,101410.91
2023-01-26T09:38:54.332Z,101409.16
2023-01-26T09:44:01.440Z,101410.94
2023-01-26T09:49:08.343Z,101408.34
2023-01-26T09:54:24.999Z,101404.88
2023-01-26T09:59:35.296Z,101384.88
2023-01-26T10:04:42.055Z,101379.63
2023-01-26T10:09:50.283Z,101376.19
2023-01-26T10:14:57.843Z,101364.84
2023-01-26T10:20:07.705Z,101355.19
2023-01-26T10:25:19.748Z,101356.09
2023-01-26T10:30:23.454Z,101364.81
2023-01-26T10:35:27.201Z,101345.63
2023-01-26T10:40:43.475Z,101349.84
2023-01-26T10:45:48.277Z,101347.22
2023-01-26T10:50:52.501Z,101341.06
2023-01-26T10:56:02.850Z,101331.41
2023-01-26T11:01:12.589Z,101333.13
2023-01-26T11:06:17.470Z,101319.06
2023-01-26T11:11:27.650Z,101304.13
2023-01-26T11:16:30.997Z,101304.84
2023-01-26T11:21:40.473Z,101302.31
2023-01-26T11:27:03.403Z,101290.91
2023-01-26T11:32:17.817Z,101269.34
2023-01-26T11:37:38.499Z,101249.56
2023-01-26T11:42:51.250Z,101228.06
2023-01-26T11:48:07.880Z,101218.22
2023-01-26T11:53:24.232Z,101231.19
2023-01-26T11:58:36.843Z,101222.25
2023-01-26T12:03:46.709Z,101224.91
2023-01-26T12:08:54.913Z,101210.94
2023-01-26T12:14:08.351Z,101189.94
2023-01-26T12:19:18.249Z,101179.03
2023-01-26T12:25:01.130Z,101163.28
2023-01-26T12:30:03.005Z,101146.16
2023-01-26T12:35:06.613Z,101129.66
2023-01-26T12:40:20.118Z,101107.88
2023-01-26T12:45:30.120Z,101093.81
2023-01-26T12:50:40.125Z,101101.38
2023-01-26T12:55:47.534Z,101107.72
2023-01-26T13:01:03.789Z,101104.41
2023-01-26T13:06:21.160Z,101086.28
2023-01-26T13:11:45.307Z,101067.19
2023-01-26T13:16:49.870Z,101050.41
2023-01-26T13:21:53.013Z,101065.16
2023-01-26T13:26:58.089Z,101041.56
2023-01-26T13:32:24.356Z,101032.53
2023-01-26T13:37:35.607Z,101023.69
2023-01-26T13:42:56.519Z,101010.47
2023-01-26T13:48:03.421Z,100975.28
2023-01-26T13:53:33.892Z,100957.78
2023-01-26T13:58:37.035Z,100965.28
2023-01-26T14:03:41.751Z,100965.59
2023-01-26T14:08:50.909Z,100948.78
2023-01-26T14:13:57.114Z,100924.00
2023-01-26T14:19:16.385Z,100919.91
2023-01-26T14:24:21.195Z,100927.88
2023-01-26T14:29:28.895Z,100918.34
2023-01-26T14:34:33.451Z,100911.06
2023-01-26T14:39:36.661Z,100906.50
2023-01-26T14:44:39.899Z,100889.81
2023-01-26T14:49:49.408Z,100894.06
2023-01-26T14:54:54.580Z,100886.97
2023-01-26T15:00:00.850Z,100881.75
2023-01-26T15:05:13.374Z,100889.91
2023-01-26T15:10:35.396Z,100868.75
2023-01-26T15:15:40.662Z,100859.84
2023-01-26T15:20:50.825Z,100865.47
2023-01-26T15:25:54.127Z,100885.41
2023-01-26T15:30:58.266Z,100882.56
2023-01-26T15:36:02.854Z,100883.56
2023-01-26T15:41:10.114Z,100879.25
2023-01-26T15:46:13.232Z,100865.25
2023-01-26T15:51:17.816Z,100869.81
2023-01-26T15:56:20.979Z,100871.84
2023-01-26T16:01:24.739Z,100863.84
2023-01-26T16:06:31.130Z,100851.00
2023-01-26T16:11:38.472Z,100862.81
2023-01-26T16:16:41.872Z,100872.22
2023-01-26T16:21:46.627Z,100869.81
2023-01-26T16:26:49.813Z,100859.06
2023-01-26T16:31:52.981Z,100861.31
2023-01-26T16:36:57.541Z,100864.94
2023-01-26T16:42:00.645Z,100860.47
2023-01-26T16:47:05.938Z,100874.81
2023-01-26T16:52:11.335Z,100876.22
2023-01-26T16:57:14.454Z,100864.41
2023-01-26T17:02:26.128Z,100879.31
2023-01-26T17:07:30.758Z,100890.84
2023-01-26T17:12:34.200Z,100908.47
2023-01-26T17:17:37.343Z,100904.19
2023-01-26T17:22:41.927Z,100907.66
2023-01-26T17:27:45.236Z,100909.03
2023-01-26T17:32:48.352Z,100901.63
2023-01-26T17:37:53.401Z,100910.88
2023-01-26T17:42:56.542Z,100906.72
2023-01-26T17:47:59.697Z,100908.81
2023-01-26T17:53:04.384Z,100919.50
2023-01-26T17:58:10.750Z,100932.06
2023-01-26T18:03:13.917Z,100925.34
2023-01-26T18:08:18.698Z,100935.34
2023-01-26T18:13:21.916Z,100939.09
2023-01-26T18:18:26.030Z,100948.06
2023-01-26T18:23:30.603Z,100948.22
2023-01-26T18:28:33.812Z,100956.16
2023-01-26T18:33:37.532Z,100956.34
2023-01-26T18:38:42.979Z,100973.91
2023-01-26T18:43:48.493Z,100973.16
2023-01-26T18:48:53.969Z,100977.78
2023-01-26T18:53:58.786Z,100998.44
2023-01-26T18:59:02.085Z,100996.00
2023-01-26T19:04:07.299Z,101002.44
2023-01-26T19:09:11.884Z,101004.97
2023-01-26T19:14:15.407Z,101013.88
2023-01-26T19:19:18.533Z,101016.69
2023-01-26T19:24:23.320Z,101013.34
2023-01-26T19:29:26.612Z,101014.22
2023-01-26T19:34:31.314Z,101014.31
2023-01-26T19:39:36.558Z,101003.97
2023-01-26T19:44:39.406Z,101010.16
2023-01-26T19:49:42.531Z,101012.84
2023-01-26T19:54:47.053Z,101005.94
2023-01-26T19:59:50.305Z,101016.50
2023-01-26T20:04:53.391Z,101026.13
2023-01-26T20:09:57.947Z,101021.91
2023-01-26T20:15:01.098Z,101029.75
2023-01-26T20:20:04.553Z,101022.91
2023-01-26T20:25:12.448Z,101023.06
2023-01-26T20:30:16.814Z,101018.78
2023-01-26T20:35:19.955Z,101024.97
2023-01-26T20:40:24.607Z,101035.47
2023-01-26T20:45:27.786Z,101025.94
2023-01-26T20:50:36.190Z,101036.44
2023-01-26T20:55:40.708Z,101046.94
2023-01-26T21:00:43.869Z,101047.81
2023-01-26T21:05:46.999Z,101046.00
2023-01-26T21:10:51.676Z,101052.09
2023-01-26T21:15:56.271Z,101055.63
2023-01-26T21:21:01.255Z,101056.41
2023-01-26T21:26:07.487Z,101054.69
2023-01-26T21:31:12.502Z,101065.28
2023-01-26T21:36:19.005Z,101067.03
2023-01-26T21:41:43.671Z,101064.38
2023-01-26T21:46:48.357Z,101073.09
2023-01-26T21:52:09.239Z,101088.00
2023-01-26T21:57:33.599Z,101081.06
2023-01-26T22:02:37.045Z,101084.53
2023-01-26T22:07:40.355Z,101087.09
2023-01-26T22:12:44.985Z,101080.97
2023-01-26T22:17:48.224Z,101083.63
2023-01-26T22:22:51.499Z,101088.06
2023-01-26T22:27:56.063Z,101090.75
2023-01-26T22:32:59.279Z,101085.59
2023-01-26T22:38:02.587Z,101098.69
2023-01-26T22:43:08.919Z,101099.53
2023-01-26T22:48:12.161Z,101099.59
2023-01-26T22:53:15.475Z,101113.47
2023-01-26T22:58:20.417Z,101115.19
2023-01-26T23:03:25.755Z,101118.72
2023-01-26T23:08:29.296Z,101122.22
2023-01-26T23:13:34.278Z,101130.84
2023-01-26T23:18:38.346Z,101135.19
2023-01-26T23:23:42.284Z,101136.94
2023-01-26T23:28:46.922Z,101132.66
2023-01-26T23:33:50.248Z,101134.38
2023-01-26T23:38:54.415Z,101139.59
2023-01-26T23:43:59.044Z,101142.19
2023-01-26T23:49:02.278Z,101142.19
2023-01-26T23:54:05.609Z,101136.13
2023-01-26T23:59:10.293Z,101131.81
